createdAt,value
2022-09-24T00:02:39.830Z,51.78
2022-09-24T00:05:42.842Z,52.02
2022-09-24T00:08:45.637Z,51.50
2022-09-24T00:11:50.544Z,51.90
2022-09-24T00:14:53.168Z,51.81
2022-09-24T00:17:55.873Z,52.31
2022-09-24T00:20:58.622Z,51.82
2022-09-24T00:24:02.209Z,51.87
2022-09-24T00:27:06.124Z,51.54
2022-09-24T00:30:09.198Z,51.28
2022-09-24T00:33:12.472Z,51.76
2022-09-24T00:36:15.665Z,51.36
2022-09-24T00:39:18.363Z,51.35
2022-09-24T00:42:22.982Z,51.65
2022-09-24T00:45:26.323Z,51.79
2022-09-24T00:48:28.972Z,51.63
2022-09-24T00:51:33.361Z,51.25
2022-09-24T00:54:37.359Z,51.64
2022-09-24T00:57:43.197Z,51.10
2022-09-24T01:00:46.088Z,51.08
2022-09-24T01:03:50.788Z,52.07
2022-09-24T01:06:53.842Z,51.48
2022-09-24T01:09:56.530Z,50.92
2022-09-24T01:13:05.114Z,52.43
2022-09-24T01:16:10.465Z,51.65
2022-09-24T01:19:24.473Z,52.86
2022-09-24T01:22:34.099Z,51.86
2022-09-24T01:25:42.256Z,51.86
2022-09-24T01:28:55.208Z,51.33
2022-09-24T01:32:03.600Z,52.00
2022-09-24T01:35:10.906Z,51.99
2022-09-24T01:38:16.204Z,51.98
2022-09-24T01:41:20.012Z,51.88
2022-09-24T01:44:22.743Z,51.90
2022-09-24T01:47:35.004Z,51.49
2022-09-24T01:50:41.224Z,51.72
2022-09-24T01:53:46.090Z,51.70
2022-09-24T01:56:52.391Z,50.83
2022-09-24T01:59:58.069Z,51.98
2022-09-24T02:03:06.876Z,52.02
2022-09-24T02:06:11.766Z,51.44
2022-09-24T02:09:33.509Z,51.42
2022-09-24T02:12:42.059Z,51.11
2022-09-24T02:15:47.772Z,51.29
2022-09-24T02:18:54.560Z,51.31
2022-09-24T02:21:58.033Z,51.99
2022-09-24T02:25:02.411Z,50.77
2022-09-24T02:28:05.241Z,51.37
2022-09-24T02:31:09.598Z,51.26
2022-09-24T02:34:22.616Z,51.51
2022-09-24T02:37:25.702Z,51.09
2022-09-24T02:40:28.829Z,51.98
2022-09-24T02:43:32.672Z,50.78
2022-09-24T02:46:35.462Z,52.10
2022-09-24T02:49:39.655Z,51.67
2022-09-24T02:52:42.715Z,51.43
2022-09-24T02:55:46.388Z,52.27
2022-09-24T02:58:49.454Z,51.30
2022-09-24T03:01:52.259Z,51.23
2022-09-24T03:04:56.507Z,51.70
2022-09-24T03:07:59.606Z,52.07
2022-09-24T03:11:02.305Z,52.08
2022-09-24T03:14:05.255Z,51.93
2022-09-24T03:17:07.958Z,51.42
2022-09-24T03:20:12.123Z,52.66
2022-09-24T03:23:14.841Z,51.97
2022-09-24T03:26:17.839Z,51.96
2022-09-24T03:29:41.191Z,52.06
2022-09-24T03:32:42.884Z,51.42
2022-09-24T03:35:46.924Z,52.09
2022-09-24T03:38:50.105Z,52.28
2022-09-24T03:41:52.737Z,50.91
2022-09-24T03:44:55.573Z,52.55
2022-09-24T03:47:58.215Z,51.54
2022-09-24T03:51:05.485Z,51.87
2022-09-24T03:54:08.166Z,52.08
2022-09-24T03:57:14.783Z,51.29
2022-09-24T04:00:17.571Z,51.67
2022-09-24T04:03:20.818Z,51.75
2022-09-24T04:06:27.042Z,51.77
2022-09-24T04:09:29.719Z,51.70
2022-09-24T04:12:32.837Z,52.02
2022-09-24T04:15:35.498Z,51.19
2022-09-24T04:18:39.741Z,51.74
2022-09-24T04:21:44.005Z,52.72
2022-09-24T04:24:46.795Z,52.61
2022-09-24T04:27:54.178Z,51.58
2022-09-24T04:30:57.059Z,52.42
2022-09-24T04:34:01.339Z,52.13
2022-09-24T04:37:05.901Z,52.18
2022-09-24T04:40:12.699Z,51.72
2022-09-24T04:43:15.492Z,51.41
2022-09-24T04:46:19.269Z,51.52
2022-09-24T04:49:22.035Z,51.41
2022-09-24T04:52:29.737Z,51.54
2022-09-24T04:55:33.177Z,51.97
2022-09-24T04:58:36.198Z,51.56
2022-09-24T05:01:38.957Z,51.55
2022-09-24T05:04:41.747Z,51.11
2022-09-24T05:07:45.752Z,51.06
2022-09-24T05:10:48.402Z,51.80
2022-09-24T05:13:51.080Z,51.12
2022-09-24T05:16:54.087Z,51.22
2022-09-24T05:19:57.847Z,51.46
2022-09-24T05:23:01.933Z,51.73
2022-09-24T05:26:22.120Z,51.93
2022-09-24T05:29:25.063Z,51.71
2022-09-24T05:32:27.801Z,51.59
2022-09-24T05:35:30.441Z,50.79
2022-09-24T05:38:34.621Z,51.03
2022-09-24T05:41:37.238Z,51.16
2022-09-24T05:44:39.939Z,51.25
2022-09-24T05:47:42.674Z,51.74
2022-09-24T05:50:45.310Z,51.35
2022-09-24T05:53:50.373Z,51.36
2022-09-24T05:56:53.031Z,51.62
2022-09-24T05:59:55.753Z,52.34
2022-09-24T06:03:02.797Z,51.83
2022-09-24T06:06:05.570Z,51.43
2022-09-24T06:09:10.185Z,51.34
2022-09-24T06:12:13.083Z,51.75
2022-09-24T06:15:15.885Z,52.54
2022-09-24T06:18:18.576Z,51.79
2022-09-24T06:21:21.288Z,51.71
2022-09-24T06:24:25.584Z,51.47
2022-09-24T06:27:28.284Z,51.28
2022-09-24T06:30:31.737Z,50.92
2022-09-24T06:33:34.383Z,50.94
2022-09-24T06:36:37.081Z,50.58
2022-09-24T06:39:41.103Z,50.28
2022-09-24T06:42:44.131Z,49.84
2022-09-24T06:45:46.872Z,49.94
2022-09-24T06:48:49.630Z,49.79
2022-09-24T06:51:54.724Z,49.87
2022-09-24T06:54:58.730Z,49.87
2022-09-24T06:58:05.444Z,49.64
2022-09-24T07:01:08.425Z,49.72
2022-09-24T07:04:11.270Z,49.97
2022-09-24T07:07:33.351Z,50.02
2022-09-24T07:10:38.115Z,49.95
2022-09-24T07:13:40.808Z,49.85
2022-09-24T07:16:43.466Z,49.44
2022-09-24T07:19:46.186Z,49.59
2022-09-24T07:22:48.890Z,49.13
2022-09-24T07:25:56.560Z,49.20
2022-09-24T07:28:59.388Z,49.38
2022-09-24T07:32:02.329Z,48.93
2022-09-24T07:35:05.283Z,49.10
2022-09-24T07:38:09.369Z,48.94
2022-09-24T07:41:13.390Z,48.86
2022-09-24T07:44:16.057Z,48.84
2022-09-24T07:47:18.856Z,48.41
2022-09-24T07:50:22.227Z,48.60
2022-09-24T07:53:25.428Z,48.50
2022-09-24T07:56:29.490Z,51.04
2022-09-24T07:59:32.622Z,49.66
2022-09-24T08:02:35.587Z,48.98
2022-09-24T08:05:43.916Z,48.88
2022-09-24T08:08:46.666Z,48.42
2022-09-24T08:11:51.763Z,48.51
2022-09-24T08:14:54.666Z,48.29
2022-09-24T08:18:01.559Z,48.10
2022-09-24T08:21:04.990Z,47.67
2022-09-24T08:24:07.909Z,47.89
2022-09-24T08:27:17.035Z,47.70
2022-09-24T08:30:21.292Z,47.62
2022-09-24T08:33:24.595Z,47.17
2022-09-24T08:36:28.048Z,47.21
2022-09-24T08:39:30.698Z,47.41
2022-09-24T08:42:40.785Z,47.37
2022-09-24T08:46:03.302Z,47.15
2022-09-24T08:49:07.277Z,46.61
2022-09-24T08:52:21.614Z,46.51
2022-09-24T08:55:30.042Z,46.99
2022-09-24T08:58:43.467Z,47.04
2022-09-24T09:01:50.580Z,47.05
2022-09-24T09:04:59.863Z,47.30
2022-09-24T09:08:33.826Z,47.28
2022-09-24T09:11:33.896Z,47.31
2022-09-24T09:14:42.240Z,47.29
2022-09-24T09:17:47.982Z,47.31
2022-09-24T09:20:53.341Z,47.35
2022-09-24T09:23:57.644Z,47.41
2022-09-24T09:27:01.652Z,47.17
2022-09-24T09:30:13.357Z,46.94
2022-09-24T09:33:23.234Z,47.14
2022-09-24T09:36:33.436Z,47.23
2022-09-24T09:39:40.003Z,47.33
2022-09-24T09:42:44.963Z,47.36
2022-09-24T09:46:00.471Z,48.06
2022-09-24T09:49:05.673Z,47.35
2022-09-24T09:52:14.802Z,47.16
2022-09-24T09:55:25.149Z,46.84
2022-09-24T09:58:29.064Z,47.03
2022-09-24T10:01:34.598Z,46.34
2022-09-24T10:04:39.335Z,46.79
2022-09-24T10:07:45.876Z,47.20
2022-09-24T10:10:55.352Z,46.99
2022-09-24T10:14:03.062Z,46.88
2022-09-24T10:17:07.247Z,46.86
2022-09-24T10:20:11.191Z,46.32
2022-09-24T10:23:19.751Z,45.71
2022-09-24T10:26:24.426Z,45.17
2022-09-24T10:29:45.503Z,45.19
2022-09-24T10:32:57.002Z,45.60
2022-09-24T10:36:04.824Z,44.10
2022-09-24T10:39:13.492Z,44.05
2022-09-24T10:42:24.731Z,44.80
2022-09-24T10:45:31.853Z,45.36
2022-09-24T10:48:38.791Z,45.67
2022-09-24T10:51:47.634Z,44.83
2022-09-24T10:54:54.279Z,48.62
2022-09-24T10:57:59.919Z,51.07
2022-09-24T11:01:09.105Z,51.95
2022-09-24T11:04:29.213Z,50.53
2022-09-24T11:07:45.856Z,49.25
2022-09-24T11:10:56.803Z,47.68
2022-09-24T11:14:06.461Z,51.55
2022-09-24T11:17:22.452Z,48.31
2022-09-24T11:20:30.935Z,49.08
2022-09-24T11:23:41.746Z,50.34
2022-09-24T11:26:51.729Z,47.56
2022-09-24T11:30:02.638Z,47.49
2022-09-24T11:33:18.262Z,48.12
2022-09-24T11:36:33.351Z,48.09
2022-09-24T11:39:44.421Z,48.76
2022-09-24T11:42:54.759Z,48.56
2022-09-24T11:46:01.042Z,48.79
2022-09-24T11:49:15.824Z,49.07
2022-09-24T11:52:26.095Z,48.13
2022-09-24T11:55:34.348Z,48.89
2022-09-24T11:58:42.593Z,46.72
2022-09-24T12:01:48.846Z,46.21
2022-09-24T12:04:55.616Z,46.52
2022-09-24T12:08:03.851Z,45.37
2022-09-24T12:11:10.125Z,46.75
2022-09-24T12:14:15.856Z,46.66
2022-09-24T12:17:19.992Z,45.85
2022-09-24T12:20:24.280Z,45.58
2022-09-24T12:23:30.307Z,45.28
2022-09-24T12:26:36.808Z,44.97
2022-09-24T12:30:03.304Z,44.54
2022-09-24T12:33:08.589Z,45.77
2022-09-24T12:36:17.633Z,44.53
2022-09-24T12:39:24.203Z,44.41
2022-09-24T12:42:31.922Z,44.62
2022-09-24T12:45:36.227Z,44.71
2022-09-24T12:48:39.796Z,45.00
2022-09-24T12:51:42.558Z,44.49
2022-09-24T12:54:47.086Z,44.86
2022-09-24T12:57:54.837Z,44.79
2022-09-24T13:01:14.924Z,45.10
2022-09-24T13:04:27.075Z,44.88
2022-09-24T13:07:30.984Z,46.24
2022-09-24T13:10:36.513Z,46.21
2022-09-24T13:13:40.909Z,47.43
2022-09-24T13:16:44.696Z,46.92
2022-09-24T13:19:48.829Z,47.57
2022-09-24T13:22:57.084Z,47.26
2022-09-24T13:26:04.965Z,47.31
2022-09-24T14:46:17.746Z,50.20
2022-09-24T14:49:25.528Z,50.08
2022-09-24T14:52:31.607Z,50.12
2022-09-24T14:55:41.756Z,49.26
2022-09-24T14:58:47.397Z,49.42
2022-09-24T15:01:57.303Z,50.99
2022-09-24T15:05:06.422Z,49.98
2022-09-24T15:08:17.304Z,49.98
2022-09-24T15:11:23.003Z,49.48
2022-09-24T15:14:34.650Z,49.53
2022-09-24T15:17:47.568Z,49.21
2022-09-24T15:20:51.042Z,49.01
2022-09-24T15:23:54.644Z,49.21
2022-09-24T15:27:01.842Z,48.57
2022-09-24T15:30:08.090Z,48.38
2022-09-24T15:33:14.974Z,48.41
2022-09-24T15:36:20.968Z,48.72
2022-09-24T15:39:24.934Z,49.06
2022-09-24T15:42:28.469Z,48.97
2022-09-24T15:45:33.347Z,49.06
2022-09-24T15:48:41.971Z,49.41
2022-09-24T15:51:44.757Z,49.98
2022-09-24T15:54:47.409Z,50.09
2022-09-24T15:57:50.138Z,50.24
2022-09-24T16:00:53.153Z,50.92
2022-09-24T16:03:59.319Z,50.94
2022-09-24T16:07:02.138Z,51.66
2022-09-24T16:10:05.227Z,51.97
2022-09-24T16:13:08.017Z,52.08
2022-09-24T16:16:11.816Z,52.09
2022-09-24T16:19:16.027Z,52.49
2022-09-24T16:22:20.765Z,52.20
2022-09-24T16:25:24.558Z,52.50
2022-09-24T16:28:37.893Z,52.62
2022-09-24T16:31:43.148Z,52.51
2022-09-24T16:34:50.253Z,52.00
2022-09-24T16:37:54.388Z,51.98
2022-09-24T16:41:09.867Z,52.15
2022-09-24T16:44:15.522Z,51.68
2022-09-24T16:47:20.572Z,52.04
2022-09-24T16:50:34.942Z,52.09
2022-09-24T16:53:45.010Z,51.94
2022-09-24T16:56:52.354Z,51.96
2022-09-24T16:59:55.444Z,52.06
2022-09-24T17:03:00.032Z,51.82
2022-09-24T17:06:05.247Z,51.97
2022-09-24T17:09:26.972Z,51.84
2022-09-24T17:12:29.737Z,52.13
2022-09-24T17:15:33.815Z,51.97
2022-09-24T17:18:38.719Z,52.03
2022-09-24T17:25:06.583Z,52.04
2022-09-24T17:28:14.581Z,52.22
2022-09-24T17:31:21.424Z,52.07
2022-09-24T17:34:27.612Z,52.21
2022-09-24T17:37:34.682Z,52.22
2022-09-24T17:40:37.500Z,51.84
2022-09-24T17:43:42.004Z,51.68
2022-09-24T17:47:00.499Z,52.06
2022-09-24T17:50:05.472Z,52.01
2022-09-24T17:53:16.059Z,52.22
2022-09-24T17:56:24.994Z,52.37
2022-09-24T17:59:32.693Z,52.12
2022-09-24T18:02:43.137Z,51.82
2022-09-24T18:06:18.071Z,51.96
2022-09-24T18:09:31.295Z,52.11
2022-09-24T18:12:34.479Z,51.94
2022-09-24T18:15:37.993Z,52.19
2022-09-24T18:18:44.943Z,52.11
2022-09-24T18:21:48.459Z,51.92
2022-09-24T18:24:56.311Z,52.23
2022-09-24T18:28:09.160Z,51.88
2022-09-24T18:31:15.612Z,52.24
2022-09-24T18:34:23.516Z,51.84
2022-09-24T18:37:37.565Z,51.74
2022-09-24T18:40:43.920Z,51.20
2022-09-24T18:43:54.807Z,51.42
2022-09-24T18:46:58.096Z,51.97
2022-09-24T18:50:02.112Z,51.83
2022-09-24T18:53:10.209Z,52.20
2022-09-24T18:56:14.896Z,52.67
2022-09-24T18:59:22.055Z,52.36
2022-09-24T19:02:28.552Z,52.41
2022-09-24T19:05:32.645Z,52.50
2022-09-24T19:08:40.440Z,53.42
2022-09-24T19:11:45.835Z,52.76
2022-09-24T19:14:54.927Z,52.93
2022-09-24T19:18:13.697Z,52.75
2022-09-24T19:21:17.207Z,53.33
2022-09-24T19:24:21.461Z,53.07
2022-09-24T19:27:25.849Z,52.13
2022-09-24T19:30:29.052Z,52.27
2022-09-24T19:33:31.779Z,51.95
2022-09-24T19:36:43.876Z,51.99
2022-09-24T19:39:47.191Z,53.08
2022-09-24T19:42:51.765Z,53.46
2022-09-24T19:45:55.466Z,53.15
2022-09-24T19:48:59.078Z,53.87
2022-09-24T19:52:04.329Z,52.87
2022-09-24T19:55:09.337Z,53.53
2022-09-24T19:58:15.092Z,53.21
2022-09-24T20:01:20.380Z,53.84
2022-09-24T20:04:31.054Z,52.83
2022-09-24T20:07:33.837Z,53.20
2022-09-24T20:10:37.721Z,53.81
2022-09-24T20:13:46.324Z,53.01
2022-09-24T20:16:50.930Z,53.56
2022-09-24T20:19:54.046Z,52.80
2022-09-24T20:22:58.389Z,53.33
2022-09-24T20:26:18.421Z,53.10
2022-09-24T20:29:23.047Z,53.41
2022-09-24T20:32:25.943Z,52.93
2022-09-24T20:35:28.997Z,53.41
2022-09-24T20:38:32.213Z,53.39
2022-09-24T20:41:34.910Z,53.69
2022-09-24T20:44:38.959Z,53.48
2022-09-24T20:47:42.236Z,53.18
2022-09-24T20:50:45.057Z,52.83
2022-09-24T20:53:48.646Z,52.95
2022-09-24T20:56:53.440Z,53.12
2022-09-24T21:00:00.369Z,52.65
2022-09-24T21:03:19.940Z,52.09
2022-09-24T21:06:27.098Z,53.21
2022-09-24T21:09:29.984Z,53.17
2022-09-24T21:12:32.682Z,52.50
2022-09-24T21:15:36.747Z,52.81
2022-09-24T21:18:40.777Z,53.25
2022-09-24T21:21:43.523Z,52.24
2022-09-24T21:24:46.272Z,53.17
2022-09-24T21:27:48.985Z,52.82
2022-09-24T21:31:03.557Z,53.15
2022-09-24T21:34:06.902Z,52.76
2022-09-24T21:37:13.305Z,52.82
2022-09-24T21:40:16.028Z,53.46
2022-09-24T21:43:19.847Z,52.91
2022-09-24T21:46:24.306Z,53.52
2022-09-24T21:49:27.121Z,52.84
2022-09-24T21:52:29.839Z,52.35
2022-09-24T21:55:35.947Z,53.25
2022-09-24T21:58:39.022Z,52.98
2022-09-24T22:01:43.270Z,51.89
2022-09-24T22:04:46.050Z,54.04
2022-09-24T22:07:49.120Z,52.07
2022-09-24T22:10:51.855Z,53.29
2022-09-24T22:13:54.712Z,53.19
2022-09-24T22:16:58.803Z,53.09
2022-09-24T22:20:01.921Z,53.25
2022-09-24T22:23:04.568Z,52.75
2022-09-24T22:26:09.670Z,53.37
2022-09-24T22:29:12.321Z,54.05
2022-09-24T22:32:16.396Z,53.33
2022-09-24T22:35:42.314Z,52.58
2022-09-24T22:38:49.364Z,53.49
2022-09-24T22:41:52.623Z,52.35
2022-09-24T22:44:55.862Z,53.84
2022-09-24T22:47:59.911Z,53.18
2022-09-24T22:51:03.258Z,53.18
2022-09-24T22:54:06.069Z,53.07
2022-09-24T22:57:08.863Z,53.00
2022-09-24T23:00:12.952Z,53.27
2022-09-24T23:03:17.013Z,53.18
2022-09-24T23:06:20.875Z,53.65
2022-09-24T23:09:23.605Z,52.56
2022-09-24T23:12:26.309Z,53.79
2022-09-24T23:15:28.913Z,53.52
2022-09-24T23:18:35.891Z,54.09
2022-09-24T23:21:38.665Z,53.12
2022-09-24T23:24:41.318Z,53.63
2022-09-24T23:27:44.015Z,52.73
2022-09-24T23:30:46.709Z,52.85
2022-09-24T23:33:50.980Z,52.80
2022-09-24T23:36:53.667Z,53.12
2022-09-24T23:39:56.376Z,52.84
2022-09-24T23:42:59.375Z,52.67
2022-09-24T23:46:02.252Z,52.92
2022-09-24T23:49:06.378Z,52.70
2022-09-24T23:52:09.034Z,53.44
2022-09-24T23:55:11.743Z,52.97
2022-09-24T23:58:15.206Z,52.80
